sensor_id;sensor_type;location;lat;lon;timestamp;P1;durP1;ratioP1;P2;durP2;ratioP2
21727;SDS011;11026;50.560;17.852;2022-12-07T00:01:35;36.55;;;23.35;;
21727;SDS011;11026;50.560;17.852;2022-12-07T00:04:09;39.15;;;23.60;;
21727;SDS011;11026;50.560;17.852;2022-12-07T00:06:40;35.92;;;24.02;;
21727;SDS011;11026;50.560;17.852;2022-12-07T00:09:13;36.05;;;23.75;;
21727;SDS011;11026;50.560;17.852;2022-12-07T00:11:43;37.47;;;24.20;;
21727;SDS011;11026;50.560;17.852;2022-12-07T00:14:13;36.67;;;22.85;;
21727;SDS011;11026;50.560;17.852;2022-12-07T00:16:43;35.83;;;22.30;;
21727;SDS011;11026;50.560;17.852;2022-12-07T00:19:12;35.42;;;22.95;;
21727;SDS011;11026;50.560;17.852;2022-12-07T00:21:41;36.80;;;23.42;;
21727;SDS011;11026;50.560;17.852;2022-12-07T00:24:11;33.92;;;21.10;;
21727;SDS011;11026;50.560;17.852;2022-12-07T00:26:40;33.58;;;21.63;;
21727;SDS011;11026;50.560;17.852;2022-12-07T00:29:17;34.90;;;20.88;;
21727;SDS011;11026;50.560;17.852;2022-12-07T00:31:48;36.10;;;22.42;;
21727;SDS011;11026;50.560;17.852;2022-12-07T00:34:20;38.38;;;23.40;;
21727;SDS011;11026;50.560;17.852;2022-12-07T00:36:49;38.37;;;23.60;;
21727;SDS011;11026;50.560;17.852;2022-12-07T00:39:17;39.03;;;23.33;;
21727;SDS011;11026;50.560;17.852;2022-12-07T00:41:44;35.67;;;22.73;;
21727;SDS011;11026;50.560;17.852;2022-12-07T00:44:12;33.03;;;22.35;;
21727;SDS011;11026;50.560;17.852;2022-12-07T00:46:40;33.85;;;22.35;;
21727;SDS011;11026;50.560;17.852;2022-12-07T00:49:07;37.67;;;25.92;;
21727;SDS011;11026;50.560;17.852;2022-12-07T00:51:35;32.65;;;21.60;;
21727;SDS011;11026;50.560;17.852;2022-12-07T00:54:02;35.30;;;22.60;;
21727;SDS011;11026;50.560;17.852;2022-12-07T00:56:30;36.25;;;22.77;;
21727;SDS011;11026;50.560;17.852;2022-12-07T00:58:58;34.08;;;21.83;;
21727;SDS011;11026;50.560;17.852;2022-12-07T01:01:28;29.33;;;20.60;;
21727;SDS011;11026;50.560;17.852;2022-12-07T01:04:00;37.55;;;22.45;;
21727;SDS011;11026;50.560;17.852;2022-12-07T01:06:29;29.73;;;20.77;;
21727;SDS011;11026;50.560;17.852;2022-12-07T01:08:57;33.13;;;21.40;;
21727;SDS011;11026;50.560;17.852;2022-12-07T01:11:26;34.70;;;21.75;;
21727;SDS011;11026;50.560;17.852;2022-12-07T01:13:56;31.13;;;20.48;;
21727;SDS011;11026;50.560;17.852;2022-12-07T01:16:28;31.77;;;20.83;;
21727;SDS011;11026;50.560;17.852;2022-12-07T01:18:59;31.77;;;21.00;;
21727;SDS011;11026;50.560;17.852;2022-12-07T01:21:28;31.88;;;21.38;;
21727;SDS011;11026;50.560;17.852;2022-12-07T01:23:59;31.90;;;21.30;;
21727;SDS011;11026;50.560;17.852;2022-12-07T01:26:28;35.80;;;21.38;;
21727;SDS011;11026;50.560;17.852;2022-12-07T01:28:56;42.20;;;30.10;;
21727;SDS011;11026;50.560;17.852;2022-12-07T01:31:26;33.45;;;21.50;;
21727;SDS011;11026;50.560;17.852;2022-12-07T01:33:55;34.80;;;22.33;;
21727;SDS011;11026;50.560;17.852;2022-12-07T01:36:25;31.63;;;20.33;;
21727;SDS011;11026;50.560;17.852;2022-12-07T01:39:02;32.10;;;21.35;;
21727;SDS011;11026;50.560;17.852;2022-12-07T01:41:33;32.67;;;21.02;;
21727;SDS011;11026;50.560;17.852;2022-12-07T01:46:48;31.35;;;20.33;;
21727;SDS011;11026;50.560;17.852;2022-12-07T01:49:42;33.72;;;20.63;;
21727;SDS011;11026;50.560;17.852;2022-12-07T01:52:24;33.33;;;21.38;;
21727;SDS011;11026;50.560;17.852;2022-12-07T01:54:59;31.52;;;19.70;;
21727;SDS011;11026;50.560;17.852;2022-12-07T01:57:31;29.65;;;19.67;;
21727;SDS011;11026;50.560;17.852;2022-12-07T02:00:01;31.73;;;19.00;;
21727;SDS011;11026;50.560;17.852;2022-12-07T02:02:31;33.63;;;20.17;;
21727;SDS011;11026;50.560;17.852;2022-12-07T02:05:02;32.05;;;20.15;;
21727;SDS011;11026;50.560;17.852;2022-12-07T02:07:34;29.55;;;19.00;;
21727;SDS011;11026;50.560;17.852;2022-12-07T02:12:47;31.42;;;19.48;;
21727;SDS011;11026;50.560;17.852;2022-12-07T02:15:20;33.20;;;19.23;;
21727;SDS011;11026;50.560;17.852;2022-12-07T02:18:00;33.25;;;20.58;;
21727;SDS011;11026;50.560;17.852;2022-12-07T02:20:33;37.75;;;21.65;;
21727;SDS011;11026;50.560;17.852;2022-12-07T02:26:47;32.88;;;21.83;;
21727;SDS011;11026;50.560;17.852;2022-12-07T02:29:24;33.38;;;21.65;;
21727;SDS011;11026;50.560;17.852;2022-12-07T02:32:03;34.70;;;22.27;;
21727;SDS011;11026;50.560;17.852;2022-12-07T02:43:02;38.55;;;26.85;;
21727;SDS011;11026;50.560;17.852;2022-12-07T02:45:34;37.50;;;21.67;;
21727;SDS011;11026;50.560;17.852;2022-12-07T02:48:05;33.72;;;22.08;;
21727;SDS011;11026;50.560;17.852;2022-12-07T02:50:35;33.53;;;21.48;;
21727;SDS011;11026;50.560;17.852;2022-12-07T02:53:02;35.65;;;21.98;;
21727;SDS011;11026;50.560;17.852;2022-12-07T02:55:38;35.60;;;22.42;;
21727;SDS011;11026;50.560;17.852;2022-12-07T03:07:05;37.08;;;22.20;;
21727;SDS011;11026;50.560;17.852;2022-12-07T03:12:44;37.35;;;23.35;;
21727;SDS011;11026;50.560;17.852;2022-12-07T03:15:38;36.50;;;23.58;;
21727;SDS011;11026;50.560;17.852;2022-12-07T03:18:06;36.28;;;22.95;;
21727;SDS011;11026;50.560;17.852;2022-12-07T03:20:36;35.50;;;22.75;;
21727;SDS011;11026;50.560;17.852;2022-12-07T03:23:06;33.35;;;21.23;;
21727;SDS011;11026;50.560;17.852;2022-12-07T03:25:42;31.88;;;20.02;;
21727;SDS011;11026;50.560;17.852;2022-12-07T03:28:17;30.58;;;20.33;;
21727;SDS011;11026;50.560;17.852;2022-12-07T03:31:00;25.13;;;17.55;;
21727;SDS011;11026;50.560;17.852;2022-12-07T03:33:55;24.38;;;16.38;;
21727;SDS011;11026;50.560;17.852;2022-12-07T03:42:24;23.83;;;16.05;;
21727;SDS011;11026;50.560;17.852;2022-12-07T03:44:53;26.13;;;16.15;;
21727;SDS011;11026;50.560;17.852;2022-12-07T03:47:26;23.83;;;15.68;;
21727;SDS011;11026;50.560;17.852;2022-12-07T03:50:04;24.23;;;14.82;;
21727;SDS011;11026;50.560;17.852;2022-12-07T03:53:18;23.83;;;15.33;;
21727;SDS011;11026;50.560;17.852;2022-12-07T03:55:42;26.23;;;15.68;;
21727;SDS011;11026;50.560;17.852;2022-12-07T03:58:12;26.08;;;16.42;;
21727;SDS011;11026;50.560;17.852;2022-12-07T04:00:44;23.25;;;15.38;;
21727;SDS011;11026;50.560;17.852;2022-12-07T04:03:13;26.30;;;16.23;;
21727;SDS011;11026;50.560;17.852;2022-12-07T04:05:40;25.13;;;16.42;;
21727;SDS011;11026;50.560;17.852;2022-12-07T04:08:15;25.55;;;15.73;;
21727;SDS011;11026;50.560;17.852;2022-12-07T04:10:45;23.77;;;15.77;;
21727;SDS011;11026;50.560;17.852;2022-12-07T04:13:12;23.05;;;14.60;;
21727;SDS011;11026;50.560;17.852;2022-12-07T04:15:41;19.05;;;13.15;;
21727;SDS011;11026;50.560;17.852;2022-12-07T04:18:08;18.15;;;11.48;;
21727;SDS011;11026;50.560;17.852;2022-12-07T04:20:36;15.27;;;11.10;;
21727;SDS011;11026;50.560;17.852;2022-12-07T04:23:03;16.83;;;10.48;;
21727;SDS011;11026;50.560;17.852;2022-12-07T04:25:31;17.27;;;10.95;;
21727;SDS011;11026;50.560;17.852;2022-12-07T04:27:59;14.13;;;9.52;;
21727;SDS011;11026;50.560;17.852;2022-12-07T04:30:26;13.48;;;9.25;;
21727;SDS011;11026;50.560;17.852;2022-12-07T04:32:54;10.57;;;7.55;;
21727;SDS011;11026;50.560;17.852;2022-12-07T04:35:27;15.13;;;7.68;;
21727;SDS011;11026;50.560;17.852;2022-12-07T04:37:55;10.23;;;7.80;;
21727;SDS011;11026;50.560;17.852;2022-12-07T04:40:22;9.45;;;6.50;;
21727;SDS011;11026;50.560;17.852;2022-12-07T04:42:50;9.15;;;6.15;;
21727;SDS011;11026;50.560;17.852;2022-12-07T04:45:18;9.93;;;6.85;;
21727;SDS011;11026;50.560;17.852;2022-12-07T04:50:18;9.02;;;6.13;;
21727;SDS011;11026;50.560;17.852;2022-12-07T04:52:46;8.32;;;5.95;;
21727;SDS011;11026;50.560;17.852;2022-12-07T04:55:13;8.32;;;5.97;;
21727;SDS011;11026;50.560;17.852;2022-12-07T04:57:41;7.75;;;6.00;;
21727;SDS011;11026;50.560;17.852;2022-12-07T05:00:08;8.15;;;6.40;;
21727;SDS011;11026;50.560;17.852;2022-12-07T05:02:36;8.32;;;6.28;;
21727;SDS011;11026;50.560;17.852;2022-12-07T05:05:04;9.48;;;7.07;;
21727;SDS011;11026;50.560;17.852;2022-12-07T05:07:33;12.48;;;8.77;;
21727;SDS011;11026;50.560;17.852;2022-12-07T05:10:02;12.88;;;8.82;;
21727;SDS011;11026;50.560;17.852;2022-12-07T05:12:31;11.60;;;8.52;;
21727;SDS011;11026;50.560;17.852;2022-12-07T05:14:58;10.68;;;8.48;;
21727;SDS011;11026;50.560;17.852;2022-12-07T05:17:25;12.48;;;8.73;;
21727;SDS011;11026;50.560;17.852;2022-12-07T05:19:53;12.18;;;9.25;;
21727;SDS011;11026;50.560;17.852;2022-12-07T05:22:20;11.32;;;8.18;;
21727;SDS011;11026;50.560;17.852;2022-12-07T05:24:48;13.85;;;9.25;;
21727;SDS011;11026;50.560;17.852;2022-12-07T05:27:15;10.90;;;8.23;;
21727;SDS011;11026;50.560;17.852;2022-12-07T05:29:44;12.75;;;9.15;;
21727;SDS011;11026;50.560;17.852;2022-12-07T05:32:11;11.23;;;7.90;;
21727;SDS011;11026;50.560;17.852;2022-12-07T05:34:39;10.15;;;8.15;;
21727;SDS011;11026;50.560;17.852;2022-12-07T05:37:06;12.38;;;9.10;;
21727;SDS011;11026;50.560;17.852;2022-12-07T05:39:34;9.88;;;7.95;;
21727;SDS011;11026;50.560;17.852;2022-12-07T05:42:10;15.73;;;9.85;;
21727;SDS011;11026;50.560;17.852;2022-12-07T05:44:41;18.67;;;10.80;;
21727;SDS011;11026;50.560;17.852;2022-12-07T05:47:13;21.40;;;11.60;;
21727;SDS011;11026;50.560;17.852;2022-12-07T05:49:41;22.50;;;12.23;;
21727;SDS011;11026;50.560;17.852;2022-12-07T05:52:09;20.42;;;11.65;;
21727;SDS011;11026;50.560;17.852;2022-12-07T05:54:38;19.67;;;12.43;;
21727;SDS011;11026;50.560;17.852;2022-12-07T05:57:06;17.75;;;10.30;;
21727;SDS011;11026;50.560;17.852;2022-12-07T05:59:35;16.40;;;10.68;;
21727;SDS011;11026;50.560;17.852;2022-12-07T06:02:07;13.98;;;10.35;;
21727;SDS011;11026;50.560;17.852;2022-12-07T06:07:06;14.90;;;10.40;;
21727;SDS011;11026;50.560;17.852;2022-12-07T06:09:34;15.90;;;9.25;;
21727;SDS011;11026;50.560;17.852;2022-12-07T06:12:02;11.38;;;8.13;;
21727;SDS011;11026;50.560;17.852;2022-12-07T06:14:56;9.20;;;7.20;;
21727;SDS011;11026;50.560;17.852;2022-12-07T06:17:27;8.93;;;7.30;;
21727;SDS011;11026;50.560;17.852;2022-12-07T06:19:54;10.23;;;7.68;;
21727;SDS011;11026;50.560;17.852;2022-12-07T06:22:22;10.77;;;8.02;;
21727;SDS011;11026;50.560;17.852;2022-12-07T06:24:49;9.85;;;8.00;;
21727;SDS011;11026;50.560;17.852;2022-12-07T06:27:17;9.25;;;7.10;;
21727;SDS011;11026;50.560;17.852;2022-12-07T06:29:44;9.85;;;8.15;;
21727;SDS011;11026;50.560;17.852;2022-12-07T06:32:12;9.60;;;7.43;;
21727;SDS011;11026;50.560;17.852;2022-12-07T06:34:39;11.68;;;7.60;;
21727;SDS011;11026;50.560;17.852;2022-12-07T06:37:07;27.13;;;12.77;;
21727;SDS011;11026;50.560;17.852;2022-12-07T06:39:34;32.40;;;14.32;;
21727;SDS011;11026;50.560;17.852;2022-12-07T06:42:02;27.65;;;12.48;;
21727;SDS011;11026;50.560;17.852;2022-12-07T06:44:29;19.00;;;10.48;;
21727;SDS011;11026;50.560;17.852;2022-12-07T06:46:56;14.05;;;8.05;;
21727;SDS011;11026;50.560;17.852;2022-12-07T06:49:44;13.10;;;8.10;;
21727;SDS011;11026;50.560;17.852;2022-12-07T06:52:11;17.10;;;10.07;;
21727;SDS011;11026;50.560;17.852;2022-12-07T06:54:38;23.98;;;12.88;;
21727;SDS011;11026;50.560;17.852;2022-12-07T06:57:07;19.35;;;11.82;;
21727;SDS011;11026;50.560;17.852;2022-12-07T06:59:34;22.08;;;12.52;;
21727;SDS011;11026;50.560;17.852;2022-12-07T07:02:02;23.10;;;13.07;;
21727;SDS011;11026;50.560;17.852;2022-12-07T07:04:31;14.65;;;10.25;;
21727;SDS011;11026;50.560;17.852;2022-12-07T07:06:58;22.42;;;13.20;;
21727;SDS011;11026;50.560;17.852;2022-12-07T07:09:26;25.42;;;13.70;;
21727;SDS011;11026;50.560;17.852;2022-12-07T07:11:53;21.83;;;13.02;;
21727;SDS011;11026;50.560;17.852;2022-12-07T07:14:21;15.20;;;10.70;;
21727;SDS011;11026;50.560;17.852;2022-12-07T07:16:50;15.15;;;10.57;;
21727;SDS011;11026;50.560;17.852;2022-12-07T07:19:19;17.02;;;12.57;;
21727;SDS011;11026;50.560;17.852;2022-12-07T07:21:46;14.27;;;11.15;;
21727;SDS011;11026;50.560;17.852;2022-12-07T07:24:14;12.65;;;9.90;;
21727;SDS011;11026;50.560;17.852;2022-12-07T07:26:41;10.50;;;8.52;;
21727;SDS011;11026;50.560;17.852;2022-12-07T07:29:10;11.05;;;8.68;;
21727;SDS011;11026;50.560;17.852;2022-12-07T07:31:37;9.98;;;8.68;;
21727;SDS011;11026;50.560;17.852;2022-12-07T07:34:05;11.35;;;8.93;;
21727;SDS011;11026;50.560;17.852;2022-12-07T07:36:32;13.27;;;9.32;;
21727;SDS011;11026;50.560;17.852;2022-12-07T07:39:00;13.25;;;10.25;;
21727;SDS011;11026;50.560;17.852;2022-12-07T07:41:27;16.23;;;12.43;;
21727;SDS011;11026;50.560;17.852;2022-12-07T07:43:55;22.60;;;16.90;;
21727;SDS011;11026;50.560;17.852;2022-12-07T07:46:22;25.20;;;16.75;;
21727;SDS011;11026;50.560;17.852;2022-12-07T07:48:50;24.27;;;16.83;;
21727;SDS011;11026;50.560;17.852;2022-12-07T07:51:18;22.48;;;14.98;;
21727;SDS011;11026;50.560;17.852;2022-12-07T07:53:45;19.10;;;13.60;;
21727;SDS011;11026;50.560;17.852;2022-12-07T07:56:13;17.05;;;12.80;;
21727;SDS011;11026;50.560;17.852;2022-12-07T07:58:40;13.60;;;10.80;;
21727;SDS011;11026;50.560;17.852;2022-12-07T08:01:07;11.98;;;9.50;;
21727;SDS011;11026;50.560;17.852;2022-12-07T08:03:35;40.33;;;22.33;;
21727;SDS011;11026;50.560;17.852;2022-12-07T08:06:03;69.80;;;35.22;;
21727;SDS011;11026;50.560;17.852;2022-12-07T08:08:30;9.65;;;8.07;;
21727;SDS011;11026;50.560;17.852;2022-12-07T08:11:05;16.55;;;11.57;;
21727;SDS011;11026;50.560;17.852;2022-12-07T08:13:33;9.70;;;7.78;;
21727;SDS011;11026;50.560;17.852;2022-12-07T08:16:05;8.90;;;7.88;;
21727;SDS011;11026;50.560;17.852;2022-12-07T08:18:43;8.48;;;6.63;;
21727;SDS011;11026;50.560;17.852;2022-12-07T08:21:13;8.27;;;6.18;;
21727;SDS011;11026;50.560;17.852;2022-12-07T08:23:42;6.80;;;6.00;;
21727;SDS011;11026;50.560;17.852;2022-12-07T08:26:10;7.80;;;6.47;;
21727;SDS011;11026;50.560;17.852;2022-12-07T08:28:40;8.38;;;6.15;;
21727;SDS011;11026;50.560;17.852;2022-12-07T08:31:12;7.13;;;5.70;;
21727;SDS011;11026;50.560;17.852;2022-12-07T08:33:44;6.30;;;5.57;;
21727;SDS011;11026;50.560;17.852;2022-12-07T08:36:14;6.50;;;5.80;;
21727;SDS011;11026;50.560;17.852;2022-12-07T08:38:42;8.05;;;4.82;;
21727;SDS011;11026;50.560;17.852;2022-12-07T08:41:29;6.15;;;5.05;;
21727;SDS011;11026;50.560;17.852;2022-12-07T08:43:56;6.22;;;4.70;;
21727;SDS011;11026;50.560;17.852;2022-12-07T08:46:25;5.88;;;4.97;;
21727;SDS011;11026;50.560;17.852;2022-12-07T08:49:16;8.02;;;6.68;;
21727;SDS011;11026;50.560;17.852;2022-12-07T08:51:53;8.48;;;6.47;;
21727;SDS011;11026;50.560;17.852;2022-12-07T08:54:22;10.73;;;7.05;;
21727;SDS011;11026;50.560;17.852;2022-12-07T08:56:51;7.70;;;6.90;;
21727;SDS011;11026;50.560;17.852;2022-12-07T08:59:26;8.93;;;7.75;;
21727;SDS011;11026;50.560;17.852;2022-12-07T09:01:56;9.48;;;7.40;;
21727;SDS011;11026;50.560;17.852;2022-12-07T09:04:24;11.10;;;7.82;;
21727;SDS011;11026;50.560;17.852;2022-12-07T09:06:51;10.15;;;7.68;;
21727;SDS011;11026;50.560;17.852;2022-12-07T09:09:19;14.38;;;10.20;;
21727;SDS011;11026;50.560;17.852;2022-12-07T09:11:46;13.32;;;8.73;;
21727;SDS011;11026;50.560;17.852;2022-12-07T09:14:14;10.52;;;8.30;;
21727;SDS011;11026;50.560;17.852;2022-12-07T09:16:41;9.13;;;7.60;;
21727;SDS011;11026;50.560;17.852;2022-12-07T09:19:08;12.25;;;9.88;;
21727;SDS011;11026;50.560;17.852;2022-12-07T09:21:36;10.32;;;6.93;;
21727;SDS011;11026;50.560;17.852;2022-12-07T09:24:03;10.77;;;8.40;;
21727;SDS011;11026;50.560;17.852;2022-12-07T09:26:33;9.30;;;7.03;;
21727;SDS011;11026;50.560;17.852;2022-12-07T09:29:02;11.00;;;7.47;;
21727;SDS011;11026;50.560;17.852;2022-12-07T09:31:29;9.50;;;6.75;;
21727;SDS011;11026;50.560;17.852;2022-12-07T09:34:00;9.52;;;7.15;;
21727;SDS011;11026;50.560;17.852;2022-12-07T09:36:29;16.58;;;9.57;;
21727;SDS011;11026;50.560;17.852;2022-12-07T09:38:58;9.05;;;7.13;;
21727;SDS011;11026;50.560;17.852;2022-12-07T09:41:26;7.57;;;6.13;;
21727;SDS011;11026;50.560;17.852;2022-12-07T09:43:58;9.48;;;6.35;;
21727;SDS011;11026;50.560;17.852;2022-12-07T09:46:35;7.78;;;5.68;;
21727;SDS011;11026;50.560;17.852;2022-12-07T09:51:36;9.75;;;6.38;;
21727;SDS011;11026;50.560;17.852;2022-12-07T09:54:05;8.27;;;6.75;;
21727;SDS011;11026;50.560;17.852;2022-12-07T09:56:32;6.68;;;5.38;;
21727;SDS011;11026;50.560;17.852;2022-12-07T09:59:00;6.05;;;5.18;;
21727;SDS011;11026;50.560;17.852;2022-12-07T10:01:30;5.55;;;4.95;;
21727;SDS011;11026;50.560;17.852;2022-12-07T10:04:20;7.47;;;5.30;;
21727;SDS011;11026;50.560;17.852;2022-12-07T10:06:49;6.50;;;5.45;;
21727;SDS011;11026;50.560;17.852;2022-12-07T10:09:21;5.53;;;4.55;;
21727;SDS011;11026;50.560;17.852;2022-12-07T10:12:10;5.95;;;5.10;;
21727;SDS011;11026;50.560;17.852;2022-12-07T10:14:52;7.18;;;5.38;;
21727;SDS011;11026;50.560;17.852;2022-12-07T10:17:37;6.18;;;4.72;;
21727;SDS011;11026;50.560;17.852;2022-12-07T10:20:29;7.43;;;5.43;;
21727;SDS011;11026;50.560;17.852;2022-12-07T10:22:59;6.70;;;5.32;;
21727;SDS011;11026;50.560;17.852;2022-12-07T10:25:33;6.60;;;5.72;;
21727;SDS011;11026;50.560;17.852;2022-12-07T10:28:17;6.13;;;4.78;;
21727;SDS011;11026;50.560;17.852;2022-12-07T10:30:57;5.05;;;4.03;;
21727;SDS011;11026;50.560;17.852;2022-12-07T10:33:37;7.85;;;5.68;;
21727;SDS011;11026;50.560;17.852;2022-12-07T10:36:16;7.18;;;6.00;;
21727;SDS011;11026;50.560;17.852;2022-12-07T10:38:52;7.22;;;6.03;;
21727;SDS011;11026;50.560;17.852;2022-12-07T10:41:27;7.05;;;5.43;;
21727;SDS011;11026;50.560;17.852;2022-12-07T10:43:56;6.57;;;5.32;;
21727;SDS011;11026;50.560;17.852;2022-12-07T10:55:17;8.38;;;5.82;;
21727;SDS011;11026;50.560;17.852;2022-12-07T11:12:57;6.68;;;5.45;;
21727;SDS011;11026;50.560;17.852;2022-12-07T11:15:55;7.10;;;5.90;;
21727;SDS011;11026;50.560;17.852;2022-12-07T11:23:58;7.45;;;6.30;;
21727;SDS011;11026;50.560;17.852;2022-12-07T11:29:34;7.38;;;6.20;;
21727;SDS011;11026;50.560;17.852;2022-12-07T11:32:36;7.38;;;6.13;;
21727;SDS011;11026;50.560;17.852;2022-12-07T11:35:22;9.50;;;7.13;;
21727;SDS011;11026;50.560;17.852;2022-12-07T11:37:51;7.55;;;6.03;;
21727;SDS011;11026;50.560;17.852;2022-12-07T11:40:26;6.53;;;5.50;;
21727;SDS011;11026;50.560;17.852;2022-12-07T11:42:58;6.93;;;6.22;;
21727;SDS011;11026;50.560;17.852;2022-12-07T11:45:32;7.47;;;6.00;;
21727;SDS011;11026;50.560;17.852;2022-12-07T11:48:02;5.78;;;5.18;;
21727;SDS011;11026;50.560;17.852;2022-12-07T11:50:38;7.50;;;5.70;;
21727;SDS011;11026;50.560;17.852;2022-12-07T11:53:19;7.63;;;5.43;;
21727;SDS011;11026;50.560;17.852;2022-12-07T11:56:07;6.13;;;5.10;;
21727;SDS011;11026;50.560;17.852;2022-12-07T11:58:47;6.40;;;5.03;;
21727;SDS011;11026;50.560;17.852;2022-12-07T12:01:27;5.45;;;4.55;;
21727;SDS011;11026;50.560;17.852;2022-12-07T12:06:37;4.90;;;4.50;;
21727;SDS011;11026;50.560;17.852;2022-12-07T12:15:20;9.88;;;5.28;;
21727;SDS011;11026;50.560;17.852;2022-12-07T12:20:54;5.72;;;4.68;;
21727;SDS011;11026;50.560;17.852;2022-12-07T12:26:35;8.23;;;6.05;;
21727;SDS011;11026;50.560;17.852;2022-12-07T12:29:05;6.60;;;5.63;;
21727;SDS011;11026;50.560;17.852;2022-12-07T12:31:46;8.00;;;5.88;;
21727;SDS011;11026;50.560;17.852;2022-12-07T12:34:42;8.75;;;6.68;;
21727;SDS011;11026;50.560;17.852;2022-12-07T12:42:51;7.47;;;5.72;;
21727;SDS011;11026;50.560;17.852;2022-12-07T12:45:29;9.40;;;7.00;;
21727;SDS011;11026;50.560;17.852;2022-12-07T12:53:26;7.47;;;6.32;;
21727;SDS011;11026;50.560;17.852;2022-12-07T12:56:02;10.18;;;6.38;;
21727;SDS011;11026;50.560;17.852;2022-12-07T12:58:46;11.63;;;7.75;;
21727;SDS011;11026;50.560;17.852;2022-12-07T13:04:18;12.57;;;8.77;;
21727;SDS011;11026;50.560;17.852;2022-12-07T13:06:51;7.95;;;6.63;;
21727;SDS011;11026;50.560;17.852;2022-12-07T13:09:33;8.98;;;7.20;;
21727;SDS011;11026;50.560;17.852;2022-12-07T13:12:15;8.67;;;6.17;;
21727;SDS011;11026;50.560;17.852;2022-12-07T13:20:06;9.57;;;6.10;;
21727;SDS011;11026;50.560;17.852;2022-12-07T13:22:43;7.70;;;6.05;;
21727;SDS011;11026;50.560;17.852;2022-12-07T13:33:44;7.07;;;5.13;;
21727;SDS011;11026;50.560;17.852;2022-12-07T13:36:34;5.40;;;4.00;;
21727;SDS011;11026;50.560;17.852;2022-12-07T13:39:16;7.45;;;4.75;;
21727;SDS011;11026;50.560;17.852;2022-12-07T13:41:49;7.30;;;5.25;;
21727;SDS011;11026;50.560;17.852;2022-12-07T13:44:33;10.98;;;5.80;;
21727;SDS011;11026;50.560;17.852;2022-12-07T13:47:18;6.05;;;4.65;;
21727;SDS011;11026;50.560;17.852;2022-12-07T13:49:58;6.55;;;5.28;;
21727;SDS011;11026;50.560;17.852;2022-12-07T13:52:27;6.90;;;5.38;;
21727;SDS011;11026;50.560;17.852;2022-12-07T13:54:58;8.45;;;5.35;;
21727;SDS011;11026;50.560;17.852;2022-12-07T13:57:34;11.73;;;6.40;;
21727;SDS011;11026;50.560;17.852;2022-12-07T14:00:03;9.32;;;5.95;;
21727;SDS011;11026;50.560;17.852;2022-12-07T14:02:54;10.55;;;6.40;;
21727;SDS011;11026;50.560;17.852;2022-12-07T14:05:28;14.35;;;7.78;;
21727;SDS011;11026;50.560;17.852;2022-12-07T14:08:04;8.30;;;5.45;;
21727;SDS011;11026;50.560;17.852;2022-12-07T14:10:33;10.13;;;6.38;;
21727;SDS011;11026;50.560;17.852;2022-12-07T14:22:07;10.23;;;6.43;;
21727;SDS011;11026;50.560;17.852;2022-12-07T14:24:44;8.50;;;5.20;;
21727;SDS011;11026;50.560;17.852;2022-12-07T14:27:31;5.65;;;5.03;;
21727;SDS011;11026;50.560;17.852;2022-12-07T14:30:03;7.50;;;6.43;;
21727;SDS011;11026;50.560;17.852;2022-12-07T14:32:34;7.20;;;6.07;;
21727;SDS011;11026;50.560;17.852;2022-12-07T14:35:11;8.98;;;6.28;;
21727;SDS011;11026;50.560;17.852;2022-12-07T14:40:16;7.95;;;6.22;;
21727;SDS011;11026;50.560;17.852;2022-12-07T14:42:49;16.73;;;8.98;;
21727;SDS011;11026;50.560;17.852;2022-12-07T14:47:59;16.20;;;8.68;;
21727;SDS011;11026;50.560;17.852;2022-12-07T14:50:52;9.32;;;6.35;;
21727;SDS011;11026;50.560;17.852;2022-12-07T14:53:43;9.15;;;5.72;;
21727;SDS011;11026;50.560;17.852;2022-12-07T14:56:18;10.65;;;6.63;;
21727;SDS011;11026;50.560;17.852;2022-12-07T14:58:46;12.25;;;7.72;;
21727;SDS011;11026;50.560;17.852;2022-12-07T15:01:15;7.32;;;5.50;;
21727;SDS011;11026;50.560;17.852;2022-12-07T15:03:42;9.02;;;6.57;;
21727;SDS011;11026;50.560;17.852;2022-12-07T15:06:17;12.10;;;6.90;;
21727;SDS011;11026;50.560;17.852;2022-12-07T15:08:45;10.05;;;6.32;;
21727;SDS011;11026;50.560;17.852;2022-12-07T15:11:16;11.77;;;7.55;;
21727;SDS011;11026;50.560;17.852;2022-12-07T15:13:45;9.38;;;6.22;;
21727;SDS011;11026;50.560;17.852;2022-12-07T15:16:32;9.55;;;6.88;;
21727;SDS011;11026;50.560;17.852;2022-12-07T15:19:20;10.50;;;7.55;;
21727;SDS011;11026;50.560;17.852;2022-12-07T15:21:55;8.85;;;6.10;;
21727;SDS011;11026;50.560;17.852;2022-12-07T15:24:23;10.98;;;7.55;;
21727;SDS011;11026;50.560;17.852;2022-12-07T15:26:51;11.70;;;7.75;;
21727;SDS011;11026;50.560;17.852;2022-12-07T15:29:19;9.95;;;7.55;;
21727;SDS011;11026;50.560;17.852;2022-12-07T15:31:50;11.02;;;6.80;;
21727;SDS011;11026;50.560;17.852;2022-12-07T15:34:26;11.60;;;7.57;;
21727;SDS011;11026;50.560;17.852;2022-12-07T15:37:05;11.23;;;7.63;;
21727;SDS011;11026;50.560;17.852;2022-12-07T15:39:34;12.77;;;7.38;;
21727;SDS011;11026;50.560;17.852;2022-12-07T15:42:03;9.93;;;7.97;;
21727;SDS011;11026;50.560;17.852;2022-12-07T15:44:32;11.55;;;7.72;;
21727;SDS011;11026;50.560;17.852;2022-12-07T15:47:18;11.10;;;7.20;;
21727;SDS011;11026;50.560;17.852;2022-12-07T15:49:46;10.45;;;6.90;;
21727;SDS011;11026;50.560;17.852;2022-12-07T15:52:14;8.98;;;6.93;;
21727;SDS011;11026;50.560;17.852;2022-12-07T15:54:43;7.32;;;6.18;;
21727;SDS011;11026;50.560;17.852;2022-12-07T15:57:11;8.43;;;6.25;;
21727;SDS011;11026;50.560;17.852;2022-12-07T15:59:38;9.48;;;6.88;;
21727;SDS011;11026;50.560;17.852;2022-12-07T16:02:07;9.60;;;7.43;;
21727;SDS011;11026;50.560;17.852;2022-12-07T16:04:37;9.40;;;6.82;;
21727;SDS011;11026;50.560;17.852;2022-12-07T16:07:05;8.25;;;6.68;;
21727;SDS011;11026;50.560;17.852;2022-12-07T16:09:32;8.23;;;6.57;;
21727;SDS011;11026;50.560;17.852;2022-12-07T16:12:00;9.77;;;6.93;;
21727;SDS011;11026;50.560;17.852;2022-12-07T16:14:27;8.60;;;6.78;;
21727;SDS011;11026;50.560;17.852;2022-12-07T16:16:55;11.82;;;7.85;;
21727;SDS011;11026;50.560;17.852;2022-12-07T16:19:24;14.00;;;9.20;;
21727;SDS011;11026;50.560;17.852;2022-12-07T16:21:52;15.63;;;10.57;;
21727;SDS011;11026;50.560;17.852;2022-12-07T16:24:19;14.30;;;9.02;;
21727;SDS011;11026;50.560;17.852;2022-12-07T16:26:46;13.23;;;9.70;;
21727;SDS011;11026;50.560;17.852;2022-12-07T16:29:20;15.73;;;8.77;;
21727;SDS011;11026;50.560;17.852;2022-12-07T16:31:49;14.55;;;9.40;;
21727;SDS011;11026;50.560;17.852;2022-12-07T16:34:18;14.90;;;10.27;;
21727;SDS011;11026;50.560;17.852;2022-12-07T16:36:45;14.13;;;9.27;;
21727;SDS011;11026;50.560;17.852;2022-12-07T16:39:31;17.60;;;10.73;;
21727;SDS011;11026;50.560;17.852;2022-12-07T16:41:59;17.80;;;11.80;;
21727;SDS011;11026;50.560;17.852;2022-12-07T16:44:27;13.90;;;10.02;;
21727;SDS011;11026;50.560;17.852;2022-12-07T16:46:55;17.30;;;11.35;;
21727;SDS011;11026;50.560;17.852;2022-12-07T16:49:22;16.13;;;11.95;;
21727;SDS011;11026;50.560;17.852;2022-12-07T16:51:50;21.20;;;13.90;;
21727;SDS011;11026;50.560;17.852;2022-12-07T16:57:11;19.85;;;15.02;;
21727;SDS011;11026;50.560;17.852;2022-12-07T16:59:48;18.98;;;14.30;;
21727;SDS011;11026;50.560;17.852;2022-12-07T17:02:16;32.55;;;25.05;;
21727;SDS011;11026;50.560;17.852;2022-12-07T17:04:45;27.10;;;19.95;;